sensor_id;sensor_type;location;lat;lon;timestamp;P1;durP1;ratioP1;P2;durP2;ratioP2
59938;SDS011;45801;51.810;19.444;2022-11-06T00:02:07;22.60;;;12.50;;
59938;SDS011;45801;51.810;19.444;2022-11-06T00:04:33;20.10;;;11.40;;
59938;SDS011;45801;51.810;19.444;2022-11-06T00:06:59;23.00;;;12.30;;
59938;SDS011;45801;51.810;19.444;2022-11-06T00:09:25;20.70;;;11.50;;
59938;SDS011;45801;51.810;19.444;2022-11-06T00:11:50;17.70;;;11.00;;
59938;SDS011;45801;51.810;19.444;2022-11-06T00:14:17;21.60;;;10.80;;
59938;SDS011;45801;51.810;19.444;2022-11-06T00:16:44;23.30;;;11.20;;
59938;SDS011;45801;51.810;19.444;2022-11-06T00:19:11;19.70;;;11.10;;
59938;SDS011;45801;51.810;19.444;2022-11-06T00:21:37;17.80;;;10.90;;
59938;SDS011;45801;51.810;19.444;2022-11-06T00:24:03;19.40;;;10.80;;
59938;SDS011;45801;51.810;19.444;2022-11-06T00:26:32;19.50;;;10.90;;
59938;SDS011;45801;51.810;19.444;2022-11-06T00:28:59;21.90;;;11.50;;
59938;SDS011;45801;51.810;19.444;2022-11-06T00:31:30;22.50;;;11.70;;
59938;SDS011;45801;51.810;19.444;2022-11-06T00:34:00;20.30;;;10.80;;
59938;SDS011;45801;51.810;19.444;2022-11-06T00:36:28;18.90;;;10.80;;
59938;SDS011;45801;51.810;19.444;2022-11-06T00:38:55;23.50;;;11.00;;
59938;SDS011;45801;51.810;19.444;2022-11-06T00:41:22;19.30;;;10.50;;
59938;SDS011;45801;51.810;19.444;2022-11-06T00:43:49;19.20;;;10.70;;
59938;SDS011;45801;51.810;19.444;2022-11-06T00:46:18;22.40;;;10.70;;
59938;SDS011;45801;51.810;19.444;2022-11-06T00:48:44;20.80;;;11.90;;
59938;SDS011;45801;51.810;19.444;2022-11-06T00:51:12;20.10;;;11.80;;
59938;SDS011;45801;51.810;19.444;2022-11-06T00:53:39;21.60;;;12.40;;
59938;SDS011;45801;51.810;19.444;2022-11-06T00:56:08;23.10;;;12.20;;
59938;SDS011;45801;51.810;19.444;2022-11-06T00:58:34;20.20;;;11.50;;
59938;SDS011;45801;51.810;19.444;2022-11-06T01:01:14;21.60;;;12.20;;
59938;SDS011;45801;51.810;19.444;2022-11-06T01:03:42;22.50;;;12.20;;
59938;SDS011;45801;51.810;19.444;2022-11-06T01:06:13;20.90;;;12.20;;
59938;SDS011;45801;51.810;19.444;2022-11-06T01:08:41;22.30;;;12.50;;
59938;SDS011;45801;51.810;19.444;2022-11-06T01:11:09;22.30;;;12.30;;
59938;SDS011;45801;51.810;19.444;2022-11-06T01:13:36;21.50;;;12.10;;
59938;SDS011;45801;51.810;19.444;2022-11-06T01:16:04;22.30;;;12.90;;
59938;SDS011;45801;51.810;19.444;2022-11-06T01:18:31;22.60;;;12.50;;
59938;SDS011;45801;51.810;19.444;2022-11-06T01:20:57;23.30;;;12.90;;
59938;SDS011;45801;51.810;19.444;2022-11-06T01:23:23;21.10;;;12.50;;
59938;SDS011;45801;51.810;19.444;2022-11-06T01:25:58;24.90;;;12.90;;
59938;SDS011;45801;51.810;19.444;2022-11-06T01:28:25;20.10;;;12.50;;
59938;SDS011;45801;51.810;19.444;2022-11-06T01:30:51;23.30;;;13.40;;
59938;SDS011;45801;51.810;19.444;2022-11-06T01:33:17;22.30;;;12.30;;
59938;SDS011;45801;51.810;19.444;2022-11-06T01:35:44;23.20;;;13.80;;
59938;SDS011;45801;51.810;19.444;2022-11-06T01:38:11;23.70;;;12.30;;
59938;SDS011;45801;51.810;19.444;2022-11-06T01:40:43;20.20;;;13.40;;
59938;SDS011;45801;51.810;19.444;2022-11-06T01:43:19;26.30;;;13.70;;
59938;SDS011;45801;51.810;19.444;2022-11-06T01:45:48;21.30;;;13.20;;
59938;SDS011;45801;51.810;19.444;2022-11-06T01:48:16;21.60;;;14.80;;
59938;SDS011;45801;51.810;19.444;2022-11-06T01:50:47;22.30;;;14.30;;
59938;SDS011;45801;51.810;19.444;2022-11-06T01:53:15;23.50;;;13.20;;
59938;SDS011;45801;51.810;19.444;2022-11-06T01:55:43;13.80;;;7.70;;
59938;SDS011;45801;51.810;19.444;2022-11-06T01:58:13;20.80;;;12.30;;
59938;SDS011;45801;51.810;19.444;2022-11-06T02:00:41;22.30;;;12.30;;
59938;SDS011;45801;51.810;19.444;2022-11-06T02:03:08;20.40;;;12.80;;
59938;SDS011;45801;51.810;19.444;2022-11-06T02:05:37;20.90;;;12.00;;
59938;SDS011;45801;51.810;19.444;2022-11-06T02:08:06;18.80;;;11.50;;
59938;SDS011;45801;51.810;19.444;2022-11-06T02:10:34;21.10;;;11.60;;
59938;SDS011;45801;51.810;19.444;2022-11-06T02:13:14;17.90;;;11.70;;
59938;SDS011;45801;51.810;19.444;2022-11-06T02:15:47;20.40;;;11.60;;
59938;SDS011;45801;51.810;19.444;2022-11-06T02:27:13;19.30;;;11.00;;
59938;SDS011;45801;51.810;19.444;2022-11-06T02:29:46;18.60;;;11.30;;
59938;SDS011;45801;51.810;19.444;2022-11-06T02:32:54;17.40;;;10.80;;
59938;SDS011;45801;51.810;19.444;2022-11-06T02:35:28;19.60;;;12.40;;
59938;SDS011;45801;51.810;19.444;2022-11-06T02:37:58;17.80;;;10.90;;
59938;SDS011;45801;51.810;19.444;2022-11-06T02:40:29;20.10;;;11.40;;
59938;SDS011;45801;51.810;19.444;2022-11-06T02:42:58;18.30;;;11.30;;
59938;SDS011;45801;51.810;19.444;2022-11-06T02:45:27;22.60;;;10.90;;
59938;SDS011;45801;51.810;19.444;2022-11-06T02:47:56;17.40;;;11.10;;
59938;SDS011;45801;51.810;19.444;2022-11-06T02:50:27;18.40;;;11.40;;
59938;SDS011;45801;51.810;19.444;2022-11-06T02:53:02;18.60;;;10.90;;
59938;SDS011;45801;51.810;19.444;2022-11-06T02:55:32;18.70;;;10.40;;
59938;SDS011;45801;51.810;19.444;2022-11-06T02:58:07;18.10;;;10.10;;
59938;SDS011;45801;51.810;19.444;2022-11-06T03:00:36;18.20;;;10.70;;
59938;SDS011;45801;51.810;19.444;2022-11-06T03:03:08;18.90;;;10.70;;
59938;SDS011;45801;51.810;19.444;2022-11-06T03:05:46;18.60;;;10.80;;
59938;SDS011;45801;51.810;19.444;2022-11-06T03:13:26;19.70;;;11.70;;
59938;SDS011;45801;51.810;19.444;2022-11-06T03:16:12;20.90;;;11.80;;
59938;SDS011;45801;51.810;19.444;2022-11-06T03:24:36;17.40;;;10.50;;
59938;SDS011;45801;51.810;19.444;2022-11-06T03:27:07;17.70;;;10.50;;
59938;SDS011;45801;51.810;19.444;2022-11-06T03:29:43;19.80;;;11.30;;
59938;SDS011;45801;51.810;19.444;2022-11-06T03:32:15;21.00;;;10.90;;
59938;SDS011;45801;51.810;19.444;2022-11-06T03:34:55;16.90;;;10.10;;
59938;SDS011;45801;51.810;19.444;2022-11-06T03:37:37;18.60;;;10.10;;
59938;SDS011;45801;51.810;19.444;2022-11-06T03:40:08;17.70;;;10.50;;
59938;SDS011;45801;51.810;19.444;2022-11-06T03:42:39;17.30;;;11.20;;
59938;SDS011;45801;51.810;19.444;2022-11-06T03:45:14;18.50;;;10.00;;
59938;SDS011;45801;51.810;19.444;2022-11-06T03:47:46;19.10;;;11.10;;
59938;SDS011;45801;51.810;19.444;2022-11-06T03:50:20;16.60;;;10.00;;
59938;SDS011;45801;51.810;19.444;2022-11-06T03:53:02;16.40;;;9.50;;
59938;SDS011;45801;51.810;19.444;2022-11-06T03:55:35;18.00;;;10.30;;
59938;SDS011;45801;51.810;19.444;2022-11-06T03:58:07;16.60;;;10.60;;
59938;SDS011;45801;51.810;19.444;2022-11-06T04:00:37;18.20;;;9.50;;
59938;SDS011;45801;51.810;19.444;2022-11-06T04:03:07;17.80;;;10.50;;
59938;SDS011;45801;51.810;19.444;2022-11-06T04:05:58;17.00;;;9.80;;
59938;SDS011;45801;51.810;19.444;2022-11-06T04:08:30;15.50;;;10.10;;
59938;SDS011;45801;51.810;19.444;2022-11-06T04:11:17;21.20;;;10.10;;
59938;SDS011;45801;51.810;19.444;2022-11-06T04:14:05;17.80;;;10.20;;
59938;SDS011;45801;51.810;19.444;2022-11-06T04:16:37;15.20;;;9.80;;
59938;SDS011;45801;51.810;19.444;2022-11-06T04:19:12;15.40;;;9.90;;
59938;SDS011;45801;51.810;19.444;2022-11-06T04:27:48;14.20;;;9.00;;
59938;SDS011;45801;51.810;19.444;2022-11-06T04:30:31;16.70;;;9.90;;
59938;SDS011;45801;51.810;19.444;2022-11-06T04:33:10;16.50;;;10.10;;
59938;SDS011;45801;51.810;19.444;2022-11-06T04:38:50;18.10;;;10.10;;
59938;SDS011;45801;51.810;19.444;2022-11-06T04:41:22;16.00;;;10.10;;
59938;SDS011;45801;51.810;19.444;2022-11-06T04:44:16;18.40;;;10.40;;
59938;SDS011;45801;51.810;19.444;2022-11-06T04:47:00;17.20;;;9.10;;
59938;SDS011;45801;51.810;19.444;2022-11-06T04:52:07;15.00;;;9.80;;
59938;SDS011;45801;51.810;19.444;2022-11-06T04:54:39;18.60;;;11.30;;
59938;SDS011;45801;51.810;19.444;2022-11-06T04:57:05;17.50;;;9.80;;
59938;SDS011;45801;51.810;19.444;2022-11-06T04:59:33;17.70;;;10.90;;
59938;SDS011;45801;51.810;19.444;2022-11-06T05:02:01;17.80;;;9.60;;
59938;SDS011;45801;51.810;19.444;2022-11-06T05:04:27;18.40;;;10.30;;
59938;SDS011;45801;51.810;19.444;2022-11-06T05:06:53;20.20;;;11.20;;
59938;SDS011;45801;51.810;19.444;2022-11-06T05:09:19;17.70;;;10.20;;
59938;SDS011;45801;51.810;19.444;2022-11-06T05:11:45;16.70;;;10.70;;
59938;SDS011;45801;51.810;19.444;2022-11-06T05:14:11;21.50;;;11.40;;
59938;SDS011;45801;51.810;19.444;2022-11-06T05:16:37;19.50;;;11.40;;
59938;SDS011;45801;51.810;19.444;2022-11-06T05:19:03;19.00;;;11.70;;
59938;SDS011;45801;51.810;19.444;2022-11-06T05:21:29;19.50;;;10.80;;
59938;SDS011;45801;51.810;19.444;2022-11-06T05:24:13;18.90;;;11.00;;
59938;SDS011;45801;51.810;19.444;2022-11-06T05:26:39;20.40;;;11.60;;
59938;SDS011;45801;51.810;19.444;2022-11-06T05:29:05;20.40;;;11.10;;
59938;SDS011;45801;51.810;19.444;2022-11-06T05:31:30;18.00;;;11.40;;
59938;SDS011;45801;51.810;19.444;2022-11-06T05:33:56;19.60;;;11.20;;
59938;SDS011;45801;51.810;19.444;2022-11-06T05:36:22;20.50;;;11.70;;
59938;SDS011;45801;51.810;19.444;2022-11-06T05:38:48;18.40;;;10.80;;
59938;SDS011;45801;51.810;19.444;2022-11-06T05:41:13;16.50;;;11.10;;
59938;SDS011;45801;51.810;19.444;2022-11-06T05:43:39;16.70;;;10.50;;
59938;SDS011;45801;51.810;19.444;2022-11-06T05:46:06;14.40;;;10.10;;
59938;SDS011;45801;51.810;19.444;2022-11-06T05:48:33;15.60;;;10.30;;
59938;SDS011;45801;51.810;19.444;2022-11-06T05:51:03;15.80;;;10.50;;
59938;SDS011;45801;51.810;19.444;2022-11-06T05:53:30;18.50;;;11.40;;
59938;SDS011;45801;51.810;19.444;2022-11-06T05:55:57;17.10;;;11.40;;
59938;SDS011;45801;51.810;19.444;2022-11-06T05:58:23;20.80;;;11.70;;
59938;SDS011;45801;51.810;19.444;2022-11-06T06:00:50;20.30;;;11.80;;
59938;SDS011;45801;51.810;19.444;2022-11-06T06:03:15;20.90;;;12.40;;
59938;SDS011;45801;51.810;19.444;2022-11-06T06:05:42;19.40;;;12.00;;
59938;SDS011;45801;51.810;19.444;2022-11-06T06:08:08;23.00;;;13.60;;
59938;SDS011;45801;51.810;19.444;2022-11-06T06:10:33;21.00;;;12.60;;
59938;SDS011;45801;51.810;19.444;2022-11-06T06:12:59;22.60;;;13.70;;
59938;SDS011;45801;51.810;19.444;2022-11-06T06:15:25;20.40;;;13.60;;
59938;SDS011;45801;51.810;19.444;2022-11-06T06:17:51;22.00;;;14.30;;
59938;SDS011;45801;51.810;19.444;2022-11-06T06:20:16;22.20;;;15.20;;
59938;SDS011;45801;51.810;19.444;2022-11-06T06:22:42;23.20;;;15.00;;
59938;SDS011;45801;51.810;19.444;2022-11-06T06:25:08;25.10;;;16.20;;
59938;SDS011;45801;51.810;19.444;2022-11-06T06:27:33;25.70;;;16.90;;
59938;SDS011;45801;51.810;19.444;2022-11-06T06:30:02;22.40;;;15.60;;
59938;SDS011;45801;51.810;19.444;2022-11-06T06:32:34;24.30;;;16.20;;
59938;SDS011;45801;51.810;19.444;2022-11-06T06:35:00;19.50;;;15.00;;
59938;SDS011;45801;51.810;19.444;2022-11-06T06:37:26;22.30;;;14.80;;
59938;SDS011;45801;51.810;19.444;2022-11-06T06:39:51;21.20;;;14.60;;
59938;SDS011;45801;51.810;19.444;2022-11-06T06:42:17;24.70;;;15.40;;
59938;SDS011;45801;51.810;19.444;2022-11-06T06:44:43;19.50;;;12.90;;
59938;SDS011;45801;51.810;19.444;2022-11-06T06:47:08;23.80;;;13.60;;
59938;SDS011;45801;51.810;19.444;2022-11-06T06:49:34;18.70;;;12.00;;
59938;SDS011;45801;51.810;19.444;2022-11-06T06:52:00;20.00;;;13.20;;
59938;SDS011;45801;51.810;19.444;2022-11-06T06:54:26;24.70;;;14.80;;
59938;SDS011;45801;51.810;19.444;2022-11-06T06:56:52;20.70;;;15.30;;
59938;SDS011;45801;51.810;19.444;2022-11-06T06:59:18;22.90;;;14.80;;
59938;SDS011;45801;51.810;19.444;2022-11-06T07:01:43;23.90;;;16.30;;
59938;SDS011;45801;51.810;19.444;2022-11-06T07:04:09;23.00;;;15.90;;
59938;SDS011;45801;51.810;19.444;2022-11-06T07:06:35;21.00;;;14.90;;
59938;SDS011;45801;51.810;19.444;2022-11-06T07:09:01;23.30;;;14.70;;
59938;SDS011;45801;51.810;19.444;2022-11-06T07:11:26;25.30;;;16.40;;
59938;SDS011;45801;51.810;19.444;2022-11-06T07:13:52;25.30;;;16.20;;
59938;SDS011;45801;51.810;19.444;2022-11-06T07:16:18;24.90;;;16.60;;
59938;SDS011;45801;51.810;19.444;2022-11-06T07:18:45;28.00;;;19.40;;
59938;SDS011;45801;51.810;19.444;2022-11-06T07:21:11;24.10;;;17.30;;
59938;SDS011;45801;51.810;19.444;2022-11-06T07:23:37;24.00;;;17.80;;
59938;SDS011;45801;51.810;19.444;2022-11-06T07:26:03;25.40;;;17.10;;
59938;SDS011;45801;51.810;19.444;2022-11-06T07:28:30;21.00;;;16.10;;
59938;SDS011;45801;51.810;19.444;2022-11-06T07:30:57;22.20;;;14.90;;
59938;SDS011;45801;51.810;19.444;2022-11-06T07:33:24;23.70;;;17.70;;
59938;SDS011;45801;51.810;19.444;2022-11-06T07:35:50;22.70;;;16.10;;
59938;SDS011;45801;51.810;19.444;2022-11-06T07:38:15;22.00;;;16.00;;
59938;SDS011;45801;51.810;19.444;2022-11-06T07:40:41;24.00;;;15.90;;
59938;SDS011;45801;51.810;19.444;2022-11-06T07:43:08;20.90;;;15.10;;
59938;SDS011;45801;51.810;19.444;2022-11-06T07:45:35;20.80;;;15.40;;
59938;SDS011;45801;51.810;19.444;2022-11-06T07:48:02;22.70;;;16.90;;
59938;SDS011;45801;51.810;19.444;2022-11-06T07:50:29;23.30;;;16.50;;
59938;SDS011;45801;51.810;19.444;2022-11-06T07:52:55;24.30;;;16.50;;
59938;SDS011;45801;51.810;19.444;2022-11-06T07:55:21;23.80;;;16.50;;
59938;SDS011;45801;51.810;19.444;2022-11-06T07:57:47;23.50;;;15.30;;
59938;SDS011;45801;51.810;19.444;2022-11-06T08:00:14;21.60;;;16.00;;
59938;SDS011;45801;51.810;19.444;2022-11-06T08:02:40;20.80;;;15.00;;
59938;SDS011;45801;51.810;19.444;2022-11-06T08:05:06;20.80;;;15.00;;
59938;SDS011;45801;51.810;19.444;2022-11-06T08:07:32;25.40;;;16.00;;
59938;SDS011;45801;51.810;19.444;2022-11-06T08:09:58;21.90;;;14.70;;
59938;SDS011;45801;51.810;19.444;2022-11-06T08:12:24;22.90;;;14.80;;
59938;SDS011;45801;51.810;19.444;2022-11-06T08:14:51;22.60;;;14.40;;
59938;SDS011;45801;51.810;19.444;2022-11-06T08:17:17;23.10;;;14.70;;
59938;SDS011;45801;51.810;19.444;2022-11-06T08:19:42;21.60;;;14.20;;
59938;SDS011;45801;51.810;19.444;2022-11-06T08:22:08;20.20;;;13.50;;
59938;SDS011;45801;51.810;19.444;2022-11-06T08:24:35;23.00;;;12.50;;
59938;SDS011;45801;51.810;19.444;2022-11-06T08:27:00;20.90;;;12.90;;
59938;SDS011;45801;51.810;19.444;2022-11-06T08:29:27;21.30;;;13.50;;
59938;SDS011;45801;51.810;19.444;2022-11-06T08:31:53;21.50;;;14.40;;
59938;SDS011;45801;51.810;19.444;2022-11-06T08:34:19;21.30;;;14.10;;
59938;SDS011;45801;51.810;19.444;2022-11-06T08:36:45;21.80;;;13.60;;
59938;SDS011;45801;51.810;19.444;2022-11-06T08:39:11;22.50;;;14.60;;
59938;SDS011;45801;51.810;19.444;2022-11-06T08:41:38;24.40;;;14.40;;
59938;SDS011;45801;51.810;19.444;2022-11-06T08:44:04;20.70;;;11.90;;
59938;SDS011;45801;51.810;19.444;2022-11-06T08:46:30;18.30;;;11.60;;
59938;SDS011;45801;51.810;19.444;2022-11-06T08:48:57;18.00;;;11.30;;
59938;SDS011;45801;51.810;19.444;2022-11-06T08:51:22;15.80;;;10.70;;
59938;SDS011;45801;51.810;19.444;2022-11-06T08:53:48;17.60;;;10.80;;
59938;SDS011;45801;51.810;19.444;2022-11-06T08:56:15;20.30;;;11.30;;
59938;SDS011;45801;51.810;19.444;2022-11-06T08:58:41;18.20;;;11.40;;
59938;SDS011;45801;51.810;19.444;2022-11-06T09:01:07;16.40;;;10.60;;
59938;SDS011;45801;51.810;19.444;2022-11-06T09:03:33;18.50;;;11.70;;
59938;SDS011;45801;51.810;19.444;2022-11-06T09:05:59;17.80;;;11.30;;
59938;SDS011;45801;51.810;19.444;2022-11-06T09:08:25;18.00;;;11.70;;
59938;SDS011;45801;51.810;19.444;2022-11-06T09:10:52;20.60;;;11.50;;
59938;SDS011;45801;51.810;19.444;2022-11-06T09:13:17;17.80;;;10.60;;
59938;SDS011;45801;51.810;19.444;2022-11-06T09:15:43;16.30;;;10.60;;
59938;SDS011;45801;51.810;19.444;2022-11-06T09:18:10;17.00;;;11.30;;
59938;SDS011;45801;51.810;19.444;2022-11-06T09:20:36;20.30;;;11.80;;
59938;SDS011;45801;51.810;19.444;2022-11-06T09:23:03;20.30;;;12.50;;
59938;SDS011;45801;51.810;19.444;2022-11-06T09:25:31;18.40;;;11.30;;
59938;SDS011;45801;51.810;19.444;2022-11-06T09:27:57;17.70;;;11.10;;
59938;SDS011;45801;51.810;19.444;2022-11-06T09:30:23;17.60;;;11.20;;
59938;SDS011;45801;51.810;19.444;2022-11-06T09:32:51;20.40;;;12.70;;
59938;SDS011;45801;51.810;19.444;2022-11-06T09:35:20;20.30;;;11.20;;
59938;SDS011;45801;51.810;19.444;2022-11-06T09:37:47;18.90;;;11.10;;
59938;SDS011;45801;51.810;19.444;2022-11-06T09:40:35;16.50;;;10.10;;
59938;SDS011;45801;51.810;19.444;2022-11-06T09:45:31;14.70;;;8.00;;
59938;SDS011;45801;51.810;19.444;2022-11-06T09:50:36;13.20;;;7.50;;
59938;SDS011;45801;51.810;19.444;2022-11-06T09:53:11;14.20;;;6.90;;
59938;SDS011;45801;51.810;19.444;2022-11-06T09:55:42;12.70;;;5.60;;
59938;SDS011;45801;51.810;19.444;2022-11-06T09:58:12;15.10;;;8.00;;
59938;SDS011;45801;51.810;19.444;2022-11-06T10:00:40;19.20;;;9.70;;
59938;SDS011;45801;51.810;19.444;2022-11-06T10:06:00;14.40;;;8.00;;
59938;SDS011;45801;51.810;19.444;2022-11-06T10:08:26;18.00;;;7.90;;
59938;SDS011;45801;51.810;19.444;2022-11-06T10:16:06;13.10;;;6.60;;
59938;SDS011;45801;51.810;19.444;2022-11-06T10:21:10;12.20;;;6.50;;
59938;SDS011;45801;51.810;19.444;2022-11-06T10:23:57;15.00;;;5.70;;
59938;SDS011;45801;51.810;19.444;2022-11-06T10:26:29;12.90;;;7.00;;
59938;SDS011;45801;51.810;19.444;2022-11-06T10:29:02;14.80;;;7.80;;
59938;SDS011;45801;51.810;19.444;2022-11-06T10:37:15;11.70;;;5.10;;
59938;SDS011;45801;51.810;19.444;2022-11-06T10:42:17;14.50;;;5.40;;
59938;SDS011;45801;51.810;19.444;2022-11-06T10:47:18;11.40;;;5.50;;
59938;SDS011;45801;51.810;19.444;2022-11-06T10:49:56;12.20;;;5.00;;
59938;SDS011;45801;51.810;19.444;2022-11-06T10:52:28;13.50;;;5.20;;
59938;SDS011;45801;51.810;19.444;2022-11-06T10:55:31;8.50;;;3.80;;
59938;SDS011;45801;51.810;19.444;2022-11-06T10:58:11;10.90;;;5.20;;
59938;SDS011;45801;51.810;19.444;2022-11-06T11:00:39;12.80;;;4.10;;
59938;SDS011;45801;51.810;19.444;2022-11-06T11:03:06;11.00;;;3.40;;
59938;SDS011;45801;51.810;19.444;2022-11-06T11:05:42;7.80;;;3.10;;
59938;SDS011;45801;51.810;19.444;2022-11-06T11:10:59;11.10;;;3.90;;
59938;SDS011;45801;51.810;19.444;2022-11-06T11:13:27;12.00;;;4.60;;
59938;SDS011;45801;51.810;19.444;2022-11-06T11:15:53;13.10;;;4.60;;
59938;SDS011;45801;51.810;19.444;2022-11-06T11:18:23;10.90;;;6.00;;
59938;SDS011;45801;51.810;19.444;2022-11-06T11:23:42;14.60;;;6.40;;
59938;SDS011;45801;51.810;19.444;2022-11-06T11:28:51;14.70;;;6.30;;
59938;SDS011;45801;51.810;19.444;2022-11-06T11:31:32;12.30;;;6.00;;
59938;SDS011;45801;51.810;19.444;2022-11-06T11:34:00;12.80;;;6.70;;
59938;SDS011;45801;51.810;19.444;2022-11-06T11:39:23;13.90;;;7.30;;
59938;SDS011;45801;51.810;19.444;2022-11-06T11:41:52;15.60;;;6.90;;
59938;SDS011;45801;51.810;19.444;2022-11-06T11:44:18;14.00;;;6.70;;
59938;SDS011;45801;51.810;19.444;2022-11-06T11:46:52;13.70;;;6.50;;
59938;SDS011;45801;51.810;19.444;2022-11-06T11:49:26;10.20;;;5.00;;
59938;SDS011;45801;51.810;19.444;2022-11-06T11:52:00;13.40;;;4.50;;
59938;SDS011;45801;51.810;19.444;2022-11-06T11:54:29;12.50;;;4.90;;
59938;SDS011;45801;51.810;19.444;2022-11-06T11:59:48;12.00;;;4.00;;
59938;SDS011;45801;51.810;19.444;2022-11-06T12:02:20;12.90;;;4.50;;
59938;SDS011;45801;51.810;19.444;2022-11-06T12:04:57;11.20;;;3.40;;
59938;SDS011;45801;51.810;19.444;2022-11-06T12:10:00;10.40;;;2.90;;
59938;SDS011;45801;51.810;19.444;2022-11-06T12:17:34;8.20;;;3.40;;
59938;SDS011;45801;51.810;19.444;2022-11-06T12:20:04;9.20;;;2.40;;
59938;SDS011;45801;51.810;19.444;2022-11-06T12:22:40;7.90;;;2.30;;
59938;SDS011;45801;51.810;19.444;2022-11-06T12:25:14;9.90;;;2.70;;
59938;SDS011;45801;51.810;19.444;2022-11-06T12:27:49;6.70;;;2.20;;
59938;SDS011;45801;51.810;19.444;2022-11-06T12:30:18;8.10;;;2.00;;
59938;SDS011;45801;51.810;19.444;2022-11-06T12:38:40;10.60;;;4.10;;
59938;SDS011;45801;51.810;19.444;2022-11-06T12:43:55;8.70;;;2.50;;
59938;SDS011;45801;51.810;19.444;2022-11-06T13:00:10;9.50;;;3.40;;
59938;SDS011;45801;51.810;19.444;2022-11-06T13:03:02;8.90;;;3.00;;
59938;SDS011;45801;51.810;19.444;2022-11-06T13:05:59;8.20;;;3.40;;
59938;SDS011;45801;51.810;19.444;2022-11-06T13:08:57;10.20;;;3.10;;
59938;SDS011;45801;51.810;19.444;2022-11-06T13:11:36;8.70;;;3.00;;
59938;SDS011;45801;51.810;19.444;2022-11-06T13:19:56;8.20;;;2.80;;
59938;SDS011;45801;51.810;19.444;2022-11-06T13:22:50;7.70;;;2.20;;
59938;SDS011;45801;51.810;19.444;2022-11-06T13:25:23;7.30;;;2.10;;
59938;SDS011;45801;51.810;19.444;2022-11-06T13:30:41;10.40;;;2.60;;
59938;SDS011;45801;51.810;19.444;2022-11-06T13:35:48;10.70;;;3.10;;
59938;SDS011;45801;51.810;19.444;2022-11-06T13:38:35;6.60;;;2.20;;
59938;SDS011;45801;51.810;19.444;2022-11-06T13:41:14;9.60;;;2.20;;
59938;SDS011;45801;51.810;19.444;2022-11-06T13:43:47;7.00;;;2.30;;
59938;SDS011;45801;51.810;19.444;2022-11-06T13:46:23;9.10;;;2.00;;
59938;SDS011;45801;51.810;19.444;2022-11-06T13:51:53;6.00;;;1.90;;
59938;SDS011;45801;51.810;19.444;2022-11-06T13:57:10;10.70;;;3.10;;
59938;SDS011;45801;51.810;19.444;2022-11-06T14:00:08;7.80;;;2.10;;
59938;SDS011;45801;51.810;19.444;2022-11-06T14:10:58;11.30;;;2.80;;
59938;SDS011;45801;51.810;19.444;2022-11-06T14:13:29;8.30;;;2.40;;
59938;SDS011;45801;51.810;19.444;2022-11-06T14:16:04;9.80;;;2.40;;
59938;SDS011;45801;51.810;19.444;2022-11-06T14:18:35;10.20;;;2.30;;
59938;SDS011;45801;51.810;19.444;2022-11-06T14:26:55;7.20;;;2.50;;
59938;SDS011;45801;51.810;19.444;2022-11-06T14:34:30;7.60;;;2.10;;
59938;SDS011;45801;51.810;19.444;2022-11-06T14:36:58;7.70;;;2.30;;
59938;SDS011;45801;51.810;19.444;2022-11-06T14:44:51;45.90;;;36.20;;
59938;SDS011;45801;51.810;19.444;2022-11-06T14:47:24;31.90;;;20.70;;
59938;SDS011;45801;51.810;19.444;2022-11-06T14:49:54;24.40;;;14.80;;
59938;SDS011;45801;51.810;19.444;2022-11-06T14:52:22;25.70;;;11.10;;
59938;SDS011;45801;51.810;19.444;2022-11-06T14:54:54;14.50;;;4.80;;
59938;SDS011;45801;51.810;19.444;2022-11-06T15:00:35;10.60;;;3.20;;
59938;SDS011;45801;51.810;19.444;2022-11-06T15:03:15;10.20;;;2.60;;
59938;SDS011;45801;51.810;19.444;2022-11-06T15:05:49;8.60;;;3.60;;
59938;SDS011;45801;51.810;19.444;2022-11-06T15:16:47;7.20;;;2.20;;
59938;SDS011;45801;51.810;19.444;2022-11-06T15:19:38;9.20;;;2.20;;
59938;SDS011;45801;51.810;19.444;2022-11-06T15:27:40;8.90;;;2.20;;
59938;SDS011;45801;51.810;19.444;2022-11-06T15:30:13;7.80;;;2.20;;
59938;SDS011;45801;51.810;19.444;2022-11-06T15:32:41;7.20;;;2.30;;
59938;SDS011;45801;51.810;19.444;2022-11-06T15:35:18;9.40;;;2.70;;
59938;SDS011;45801;51.810;19.444;2022-11-06T15:37:47;11.00;;;2.50;;
59938;SDS011;45801;51.810;19.444;2022-11-06T15:40:27;13.40;;;3.40;;
59938;SDS011;45801;51.810;19.444;2022-11-06T15:42:56;8.70;;;2.60;;
59938;SDS011;45801;51.810;19.444;2022-11-06T15:45:26;7.70;;;2.60;;
59938;SDS011;45801;51.810;19.444;2022-11-06T15:47:54;9.00;;;2.80;;
59938;SDS011;45801;51.810;19.444;2022-11-06T15:50:29;9.60;;;2.80;;
59938;SDS011;45801;51.810;19.444;2022-11-06T15:53:17;8.60;;;2.50;;
59938;SDS011;45801;51.810;19.444;2022-11-06T16:00:48;10.10;;;3.00;;
59938;SDS011;45801;51.810;19.444;2022-11-06T16:03:14;10.40;;;3.60;;
59938;SDS011;45801;51.810;19.444;2022-11-06T16:05:42;8.90;;;3.60;;
59938;SDS011;45801;51.810;19.444;2022-11-06T16:08:13;11.40;;;5.70;;
59938;SDS011;45801;51.810;19.444;2022-11-06T16:10:41;18.40;;;9.90;;
59938;SDS011;45801;51.810;19.444;2022-11-06T16:13:13;27.70;;;13.60;;
59938;SDS011;45801;51.810;19.444;2022-11-06T16:18:09;33.00;;;18.60;;
59938;SDS011;45801;51.810;19.444;2022-11-06T16:20:54;34.60;;;21.90;;
59938;SDS011;45801;51.810;19.444;2022-11-06T16:23:22;59.60;;;31.50;;
59938;SDS011;45801;51.810;19.444;2022-11-06T16:25:56;59.50;;;33.70;;
59938;SDS011;45801;51.810;19.444;2022-11-06T16:28:24;58.60;;;34.20;;
59938;SDS011;45801;51.810;19.444;2022-11-06T16:30:52;62.40;;;36.10;;
59938;SDS011;45801;51.810;19.444;2022-11-06T16:33:20;63.20;;;37.70;;
59938;SDS011;45801;51.810;19.444;2022-11-06T16:35:50;68.00;;;40.10;;
59938;SDS011;45801;51.810;19.444;2022-11-06T16:43:19;64.60;;;39.30;;
59938;SDS011;45801;51.810;19.444;2022-11-06T16:46:00;58.50;;;36.40;;
59938;SDS011;45801;51.810;19.444;2022-11-06T16:48:36;56.70;;;35.40;;
59938;SDS011;45801;51.810;19.444;2022-11-06T16:51:05;58.50;;;35.70;;
59938;SDS011;45801;51.810;19.444;2022-11-06T16:53:45;59.90;;;36.60;;
59938;SDS011;45801;51.810;19.444;2022-11-06T16:56:15;62.20;;;37.10;;
59938;SDS011;45801;51.810;19.444;2022-11-06T16:58:50;63.60;;;40.10;;
59938;SDS011;45801;51.810;19.444;2022-11-06T17:01:19;64.80;;;42.20;;
59938;SDS011;45801;51.810;19.444;2022-11-06T17:03:57;69.60;;;44.20;;
59938;SDS011;45801;51.810;19.444;2022-11-06T17:06:29;70.70;;;44.50;;
59938;SDS011;45801;51.810;19.444;2022-11-06T17:09:03;62.30;;;42.50;;
59938;SDS011;45801;51.810;19.444;2022-11-06T17:11:31;67.20;;;44.00;;
59938;SDS011;45801;51.810;19.444;2022-11-06T17:13:56;71.30;;;45.00;;
59938;SDS011;45801;51.810;19.444;2022-11-06T17:16:24;74.10;;;48.00;;
59938;SDS011;45801;51.810;19.444;2022-11-06T17:18:51;78.00;;;48.00;;
59938;SDS011;45801;51.810;19.444;2022-11-06T17:21:19;75.30;;;45.40;;
59938;SDS011;45801;51.810;19.444;2022-11-06T17:23:47;70.60;;;45.40;;
59938;SDS011;45801;51.810;19.444;2022-11-06T17:26:27;60.80;;;43.90;;